Time;durP1;ratioP1;P1;durP2;ratioP2;P2;SDS_P1;SDS_P2;PMS_P1;PMS_P2;Temp;Humidity;BMP_temperature;BMP_pressure;BME280_temperature;BME280_humidity;BME280_pressure;Samples;Min_cycle;Max_cycle;Signal;HPM_P1;HPM_P2
2022/04/06 00:00:44;;;;;;;11.43;10.30;;;;;;;12.22;49.58;99183.00;6273228;22;20007;-89
2022/04/06 00:03:10;;;;;;;11.23;8.93;;;;;;;12.17;50.05;99189.91;6272825;22;20043;-89
2022/04/06 00:05:35;;;;;;;9.60;8.60;;;;;;;12.18;50.30;99215.34;6272516;22;19999;-89
2022/04/06 00:08:01;;;;;;;8.80;7.90;;;;;;;11.91;49.97;99149.06;6272824;22;19999;-89
2022/04/06 00:10:28;;;;;;;8.93;7.53;;;;;;;11.56;50.32;99099.81;6272987;22;20007;-90
2022/04/06 00:12:54;;;;;;;9.15;7.88;;;;;;;11.86;50.21;99171.81;6272907;22;19995;-89
2022/04/06 00:15:19;;;;;;;9.00;8.10;;;;;;;11.42;50.22;99107.66;6273050;22;19996;-90
2022/04/06 00:17:46;;;;;;;10.60;8.18;;;;;;;12.17;50.68;99219.00;6272925;22;20426;-89
2022/04/06 00:20:12;;;;;;;8.80;7.90;;;;;;;12.15;50.31;99223.69;6274650;22;20070;-89
2022/04/06 00:22:37;;;;;;;8.73;6.82;;;;;;;11.41;50.83;99119.25;6273132;22;20468;-90
2022/04/06 00:25:03;;;;;;;9.43;7.78;;;;;;;11.65;50.91;99156.81;6273020;22;20003;-89
2022/04/06 00:27:28;;;;;;;8.77;7.60;;;;;;;11.40;50.82;99122.06;6272761;22;20079;-89
2022/04/06 00:29:54;;;;;;;8.48;7.55;;;;;;;10.86;50.79;99035.50;6272593;22;19996;-90
2022/04/06 00:32:20;;;;;;;11.80;8.35;;;;;;;12.09;50.95;99239.34;6272781;22;20030;-89
2022/04/06 00:37:29;;;;;;;8.82;7.93;;;;;;;11.31;50.81;99124.06;6274268;22;20015;-89
2022/04/06 00:39:54;;;;;;;10.10;8.30;;;;;;;11.24;50.79;99112.63;6273016;22;19995;-89
2022/04/06 00:42:20;;;;;;;9.35;8.45;;;;;;;11.50;50.80;99129.66;6273032;22;20370;-90
2022/04/06 00:44:45;;;;;;;9.07;8.02;;;;;;;11.54;50.65;99144.94;6272799;22;20004;-90
2022/04/06 00:47:11;;;;;;;8.95;7.65;;;;;;;11.39;50.74;99125.72;6272841;22;20030;-90
2022/04/06 00:49:37;;;;;;;16.13;12.13;;;;;;;11.53;50.23;99147.78;6272759;22;20356;-90
2022/04/06 00:52:06;;;;;;;27.70;17.58;;;;;;;12.06;49.72;99218.56;6274200;22;20441;-89
2022/04/06 00:54:34;;;;;;;27.80;17.83;;;;;;;10.96;49.80;99053.66;6274667;22;20000;-90
2022/04/06 00:57:00;;;;;;;16.45;10.80;;;;;;;11.29;49.32;99131.34;6276258;22;20003;-89
2022/04/06 00:59:29;;;;;;;12.45;10.07;;;;;;;11.70;49.01;99191.41;6274682;22;20012;-90
2022/04/06 01:01:55;;;;;;;11.10;9.85;;;;;;;11.48;49.37;99203.06;6274287;22;20381;-90
2022/04/06 01:04:21;;;;;;;12.07;9.38;;;;;;;11.14;49.46;99146.47;6276032;22;20438;-90
2022/04/06 01:06:50;;;;;;;9.52;8.63;;;;;;;10.93;49.16;99143.84;6274836;22;20529;-90
2022/04/06 01:09:16;;;;;;;11.63;8.48;;;;;;;11.16;48.87;99197.31;6274575;22;20006;-90
2022/04/06 01:11:44;;;;;;;14.40;10.02;;;;;;;10.27;49.39;99070.09;6274562;22;20479;-90
2022/04/06 01:14:10;;;;;;;11.75;8.95;;;;;;;10.47;49.02;99117.81;6300752;22;20447;-90
2022/04/06 01:16:36;;;;;;;11.65;8.68;;;;;;;11.05;49.37;99216.28;6274811;22;20425;-90
2022/04/06 01:19:01;;;;;;;11.25;9.80;;;;;;;9.60;49.05;98993.84;6274693;22;20010;-90
2022/04/06 01:21:27;;;;;;;9.27;8.30;;;;;;;10.26;49.11;99130.97;6274510;22;20003;-90
2022/04/06 01:23:52;;;;;;;9.88;7.88;;;;;;;10.65;49.20;99207.97;6274534;22;20333;-90
2022/04/06 01:26:19;;;;;;;9.95;8.00;;;;;;;10.10;49.22;99114.31;6274296;22;20057;-90
2022/04/06 01:28:45;;;;;;;12.20;8.73;;;;;;;10.65;48.90;99207.16;6274540;22;20451;-90
2022/04/06 01:31:10;;;;;;;11.85;7.55;;;;;;;10.87;49.37;99248.41;6274870;22;19995;-90
2022/04/06 01:33:36;;;;;;;9.70;7.55;;;;;;;10.52;48.87;99199.09;6274123;22;20006;-90
2022/04/06 01:36:02;;;;;;;8.40;7.22;;;;;;;10.18;48.74;99155.59;6274362;22;20003;-90
2022/04/06 01:38:28;;;;;;;11.63;8.10;;;;;;;8.99;48.89;98958.22;6274441;22;20053;-90
2022/04/06 01:40:54;;;;;;;8.40;7.00;;;;;;;9.71;48.92;99111.19;6274283;22;20003;-90
2022/04/06 01:43:20;;;;;;;11.23;7.28;;;;;;;10.18;49.10;99159.06;6274528;22;20082;-90
2022/04/06 01:45:46;;;;;;;10.80;7.93;;;;;;;10.65;48.61;99246.75;6274407;22;20004;-90
2022/04/06 01:48:14;;;;;;;9.55;7.75;;;;;;;9.92;48.83;99139.47;6274367;22;20007;-90
2022/04/06 01:53:23;;;;;;;9.65;7.00;;;;;;;9.48;48.97;99080.47;6275369;22;20445;-91
2022/04/06 01:55:48;;;;;;;9.35;7.40;;;;;;;10.50;48.84;99262.63;6274273;22;19995;-90
2022/04/06 01:58:14;;;;;;;9.07;7.53;;;;;;;9.49;48.81;99121.63;6274189;22;20053;-91
2022/04/06 02:00:40;;;;;;;8.80;7.50;;;;;;;9.85;48.69;99194.75;6274438;22;20004;-90
2022/04/06 02:03:06;;;;;;;27.58;19.23;;;;;;;10.39;48.93;99268.34;6273926;22;20072;-90
2022/04/06 02:05:33;;;;;;;23.52;15.07;;;;;;;10.02;49.18;99230.47;6273902;22;20007;-90
2022/04/06 02:08:00;;;;;;;11.63;8.15;;;;;;;9.52;49.67;99178.41;6274273;22;20026;-90
2022/04/06 02:10:27;;;;;;;10.00;7.82;;;;;;;9.82;49.28;99222.28;6273769;22;20003;-90
2022/04/06 02:12:56;;;;;;;11.57;9.43;;;;;;;9.54;49.58;99190.41;6273575;22;20034;-90
2022/04/06 02:15:23;;;;;;;10.65;7.78;;;;;;;10.08;49.68;99281.69;6273861;22;20429;-90
2022/04/06 02:17:48;;;;;;;10.85;9.20;;;;;;;10.09;49.19;99289.41;6273973;22;20003;-90
2022/04/06 02:20:14;;;;;;;12.52;10.00;;;;;;;9.94;49.15;99245.56;6273986;22;20004;-91
2022/04/06 02:22:41;;;;;;;14.20;11.32;;;;;;;8.22;48.86;98967.13;6275407;22;20441;-91
2022/04/06 02:25:07;;;;;;;13.45;10.13;;;;;;;9.46;48.98;99193.13;6274049;22;20471;-91
2022/04/06 02:27:32;;;;;;;13.73;11.25;;;;;;;9.20;48.83;99151.41;6273766;22;20456;-91
2022/04/06 02:29:58;;;;;;;14.75;11.10;;;;;;;9.77;48.96;99237.00;6273661;22;19995;-90
2022/04/06 02:32:23;;;;;;;14.57;11.30;;;;;;;9.73;48.70;99230.47;6273571;22;20007;-90
2022/04/06 02:34:49;;;;;;;15.77;11.07;;;;;;;9.56;48.82;99217.41;6273865;22;20071;-91
2022/04/06 02:37:14;;;;;;;11.52;9.77;;;;;;;8.96;48.91;99127.09;6273804;22;20007;-91
2022/04/06 02:39:40;;;;;;;10.10;9.05;;;;;;;9.13;48.67;99160.19;6273806;22;20070;-91
2022/04/06 02:42:06;;;;;;;11.23;9.27;;;;;;;9.77;48.69;99271.28;6299474;22;20007;-90
2022/04/06 02:44:32;;;;;;;11.27;9.50;;;;;;;9.51;48.90;99258.47;6273684;22;20007;-91
2022/04/06 02:46:57;;;;;;;9.43;8.43;;;;;;;9.23;48.63;99193.19;6273828;22;20079;-90
2022/04/06 02:49:23;;;;;;;8.63;7.22;;;;;;;9.63;48.45;99258.88;6274039;22;20000;-91
2022/04/06 02:51:48;;;;;;;9.63;7.43;;;;;;;8.91;48.49;99154.75;6273267;22;20100;-90
2022/04/06 02:54:14;;;;;;;11.45;6.80;;;;;;;9.01;48.49;99198.47;6273477;22;19992;-91
2022/04/06 02:56:39;;;;;;;8.80;6.90;;;;;;;9.16;48.72;99217.78;6299912;22;20098;-90
2022/04/06 02:59:05;;;;;;;9.23;6.47;;;;;;;8.87;48.18;99174.50;6273916;22;19999;-91
2022/04/06 03:01:31;;;;;;;7.03;6.32;;;;;;;9.28;48.30;99262.97;6273453;22;20074;-90
2022/04/06 03:03:56;;;;;;;8.15;7.22;;;;;;;8.72;48.52;99184.16;6299275;22;20012;-91
2022/04/06 03:06:22;;;;;;;9.10;7.28;;;;;;;9.48;48.43;99293.09;6274971;22;20003;-91
2022/04/06 03:08:47;;;;;;;7.90;6.25;;;;;;;9.44;48.77;99308.44;6274914;22;20054;-91
2022/04/06 03:11:13;;;;;;;8.50;7.55;;;;;;;9.17;48.84;99278.19;6273674;22;20000;-90
2022/04/06 03:13:38;;;;;;;27.33;18.35;;;;;;;8.51;48.75;99184.78;6273940;22;20521;-91
2022/04/06 03:16:05;;;;;;;16.55;11.57;;;;;;;8.35;48.47;99160.41;6273816;22;20006;-91
2022/04/06 03:18:30;;;;;;;14.88;12.20;;;;;;;8.70;48.75;99238.78;6273807;22;20006;-91
2022/04/06 03:20:56;;;;;;;9.57;8.23;;;;;;;8.62;48.98;99220.41;6273720;22;19996;-90
2022/04/06 03:23:21;;;;;;;15.88;11.05;;;;;;;8.36;49.14;99218.09;6273650;22;20334;-91
2022/04/06 03:25:48;;;;;;;16.65;11.93;;;;;;;9.30;48.88;99317.09;6273463;22;20064;-91
2022/04/06 03:28:14;;;;;;;22.90;15.23;;;;;;;8.80;48.52;99257.00;6273572;22;19995;-91
2022/04/06 03:30:40;;;;;;;21.40;14.90;;;;;;;9.08;48.49;99292.41;6273544;22;20064;-91
2022/04/06 03:33:06;;;;;;;9.63;7.25;;;;;;;8.19;48.67;99164.72;6273310;22;20000;-91
2022/04/06 03:35:32;;;;;;;9.63;6.60;;;;;;;8.97;48.84;99282.25;6273414;22;19996;-91
2022/04/06 03:37:57;;;;;;;8.27;6.90;;;;;;;8.67;48.85;99217.25;6273264;22;20010;-91
2022/04/06 03:40:23;;;;;;;8.13;6.90;;;;;;;9.33;48.67;99332.56;6273089;22;20070;-91
2022/04/06 03:42:48;;;;;;;10.43;8.13;;;;;;;9.00;48.82;99286.38;6273165;22;20356;-90
2022/04/06 03:45:14;;;;;;;8.63;7.70;;;;;;;8.33;48.72;99181.63;6273048;22;20518;-91
2022/04/06 03:47:43;;;;;;;8.18;7.05;;;;;;;9.27;48.80;99325.38;6273350;22;20579;-90
2022/04/06 03:50:09;;;;;;;8.02;7.07;;;;;;;9.16;48.71;99317.88;6273433;22;19996;-91
2022/04/06 03:52:34;;;;;;;8.88;6.75;;;;;;;8.29;48.80;99204.78;6273387;22;20006;-91
2022/04/06 03:55:00;;;;;;;8.68;7.72;;;;;;;8.03;48.98;99177.91;6273158;22;20003;-91
2022/04/06 03:57:25;;;;;;;9.32;7.45;;;;;;;8.35;48.93;99208.56;6273134;22;20011;-91
2022/04/06 03:59:52;;;;;;;10.32;7.53;;;;;;;8.94;48.95;99298.41;6273169;22;20000;-91
2022/04/06 04:02:17;;;;;;;7.97;6.45;;;;;;;8.94;48.72;99321.28;6272809;22;20373;-91
2022/04/06 04:04:43;;;;;;;7.78;6.85;;;;;;;8.87;48.85;99340.38;6274534;22;20031;-91
2022/04/06 04:07:09;;;;;;;8.40;6.93;;;;;;;8.36;49.02;99225.16;6298960;22;19996;-91
2022/04/06 04:09:37;;;;;;;9.98;8.45;;;;;;;8.27;48.64;99238.31;6273322;22;20467;-91
2022/04/06 04:12:04;;;;;;;8.98;7.68;;;;;;;8.99;49.13;99342.66;6273224;22;20000;-91
2022/04/06 04:14:32;;;;;;;12.43;8.40;;;;;;;7.97;49.41;99218.03;6273152;22;19996;-91
2022/04/06 04:16:58;;;;;;;16.17;10.90;;;;;;;8.05;49.32;99232.94;6273327;22;20034;-91
2022/04/06 04:19:23;;;;;;;11.13;8.55;;;;;;;8.44;49.80;99291.72;6273223;22;19999;-91
2022/04/06 04:21:49;;;;;;;9.68;7.63;;;;;;;6.94;49.35;99049.81;6273436;22;20010;-91
2022/04/06 04:24:14;;;;;;;14.02;9.30;;;;;;;8.71;49.25;99339.63;6273215;22;20003;-91
2022/04/06 04:26:40;;;;;;;13.68;9.82;;;;;;;8.50;49.22;99298.94;6275123;22;20331;-91
2022/04/06 04:29:07;;;;;;;12.68;9.18;;;;;;;8.57;49.55;99291.16;6275082;22;20079;-91
2022/04/06 04:31:33;;;;;;;14.48;10.32;;;;;;;8.65;49.34;99364.00;6275099;22;19992;-91
2022/04/06 04:33:59;;;;;;;14.45;10.75;;;;;;;8.21;49.14;99278.44;6275044;22;20000;-91
2022/04/06 04:36:24;;;;;;;17.80;11.52;;;;;;;8.98;49.23;99372.63;6274875;22;20002;-91
2022/04/06 04:38:50;;;;;;;22.25;14.77;;;;;;;9.03;49.66;99350.03;6274974;22;20082;-91
2022/04/06 04:41:16;;;;;;;29.92;20.15;;;;;;;9.04;49.58;99364.03;6276086;22;20006;-91
2022/04/06 04:43:42;;;;;;;16.33;12.32;;;;;;;8.39;49.49;99251.94;6274621;22;20041;-91
2022/04/06 04:46:07;;;;;;;15.73;10.75;;;;;;;8.73;48.90;99309.50;6274527;22;20339;-91
2022/04/06 04:48:33;;;;;;;17.02;11.18;;;;;;;8.33;49.05;99242.09;6274683;22;20000;-91
2022/04/06 04:50:59;;;;;;;15.38;11.32;;;;;;;8.76;49.02;99319.69;6274831;22;20004;-91
2022/04/06 04:53:25;;;;;;;20.15;12.90;;;;;;;7.85;49.09;99179.94;6276271;22;19999;-91
2022/04/06 04:55:51;;;;;;;17.98;12.18;;;;;;;7.94;48.85;99168.41;6274790;22;19992;-90
2022/04/06 04:58:16;;;;;;;18.08;11.85;;;;;;;7.78;48.69;99152.72;6276455;22;20405;-91
2022/04/06 05:00:42;;;;;;;16.25;11.98;;;;;;;8.68;48.85;99287.34;6274701;22;20006;-91
2022/04/06 05:03:08;;;;;;;17.48;12.18;;;;;;;9.34;48.84;99379.00;6274309;22;20428;-89
2022/04/06 05:05:34;;;;;;;16.58;11.13;;;;;;;8.61;48.73;99242.47;6274333;22;20064;-91
2022/04/06 05:08:00;;;;;;;18.00;11.23;;;;;;;8.41;48.58;99205.25;6274557;22;20082;-91
2022/04/06 05:10:26;;;;;;;17.63;12.18;;;;;;;9.17;48.54;99325.59;6274586;22;20444;-91
2022/04/06 05:12:52;;;;;;;17.23;13.32;;;;;;;9.45;48.93;99406.75;6274535;22;20000;-90
2022/04/06 05:15:18;;;;;;;15.77;12.52;;;;;;;9.02;48.99;99321.25;6274525;22;19992;-91
2022/04/06 05:17:43;;;;;;;15.35;11.60;;;;;;;8.86;48.92;99266.84;6274302;22;20003;-91
2022/04/06 05:20:10;;;;;;;13.25;10.18;;;;;;;9.32;48.94;99343.28;6274497;22;20445;-91
2022/04/06 05:22:35;;;;;;;12.75;8.90;;;;;;;8.83;48.82;99260.09;6277583;22;20440;-88
2022/04/06 05:25:04;;;;;;;16.08;9.23;;;;;;;9.76;48.85;99388.28;6295624;22;20015;-87
2022/04/06 05:27:31;;;;;;;11.55;8.65;;;;;;;9.03;49.32;99283.38;6295232;22;20048;-88
2022/04/06 05:29:56;;;;;;;11.02;8.32;;;;;;;9.35;48.87;99324.50;6296211;22;20004;-88
2022/04/06 05:32:22;;;;;;;10.60;8.48;;;;;;;9.45;49.05;99346.97;6296163;22;20001;-89
2022/04/06 05:34:47;;;;;;;13.07;9.40;;;;;;;9.11;48.90;99275.44;6277265;22;20038;-90
2022/04/06 05:37:13;;;;;;;9.70;7.45;;;;;;;9.47;49.13;99326.53;6275515;22;20079;-90
2022/04/06 05:39:38;;;;;;;10.75;8.63;;;;;;;9.34;48.94;99278.88;6274156;22;20352;-90
2022/04/06 05:42:04;;;;;;;8.85;7.90;;;;;;;9.98;48.73;99358.44;6273152;22;20370;-92
2022/04/06 05:44:29;;;;;;;12.38;9.13;;;;;;;10.30;49.07;99410.13;6272235;22;20418;-91
2022/04/06 05:46:55;;;;;;;11.88;8.60;;;;;;;10.04;49.17;99370.91;6273213;22;20472;-89
2022/04/06 05:49:20;;;;;;;13.45;11.43;;;;;;;9.66;48.83;99276.97;6274059;22;20000;-90
2022/04/06 05:51:46;;;;;;;10.75;9.13;;;;;;;10.06;48.57;99310.06;6274018;22;20000;-90
2022/04/06 05:54:11;;;;;;;12.00;8.88;;;;;;;10.06;48.79;99321.44;6273975;22;20004;-90
2022/04/06 05:56:36;;;;;;;13.27;9.98;;;;;;;10.63;48.62;99371.03;6299645;22;20082;-90
2022/04/06 05:59:02;;;;;;;13.30;9.85;;;;;;;9.97;48.43;99247.84;6275253;22;20034;-90
2022/04/06 06:01:28;;;;;;;15.13;9.75;;;;;;;9.94;48.26;99262.22;6273392;22;20023;-91
2022/04/06 06:03:53;;;;;;;13.00;9.40;;;;;;;11.15;48.82;99417.63;6273769;22;20008;-88
2022/04/06 06:06:19;;;;;;;11.40;8.68;;;;;;;10.62;48.05;99334.25;6274860;22;20459;-89
2022/04/06 06:08:45;;;;;;;10.93;8.32;;;;;;;10.76;48.23;99339.50;6274330;22;20121;-87
2022/04/06 06:11:11;;;;;;;11.57;8.27;;;;;;;10.62;47.95;99278.81;6274575;22;19996;-89
2022/04/06 06:13:36;;;;;;;9.80;7.80;;;;;;;10.96;47.79;99337.09;6275091;22;20066;-88
2022/04/06 06:16:04;;;;;;;13.63;8.98;;;;;;;11.03;47.42;99334.53;6274210;22;20070;-88
2022/04/06 06:18:30;;;;;;;12.60;8.07;;;;;;;11.37;47.46;99368.28;6274913;22;20010;-89
2022/04/06 06:21:00;;;;;;;11.82;7.63;;;;;;;11.70;47.47;99408.28;6276607;22;20078;-87
2022/04/06 06:23:26;;;;;;;11.30;7.97;;;;;;;11.08;46.94;99288.06;6289844;22;20128;-90
2022/04/06 06:25:52;;;;;;;11.25;8.45;;;;;;;11.88;47.19;99387.53;6285128;22;20472;-90
2022/04/06 06:28:18;;;;;;;11.57;8.30;;;;;;;12.07;46.88;99421.31;6285358;22;19999;-89
2022/04/06 06:30:43;;;;;;;11.63;8.85;;;;;;;11.25;47.03;99270.16;6285202;22;20030;-89
2022/04/06 06:33:08;;;;;;;11.95;9.63;;;;;;;11.31;46.63;99273.88;6299980;22;20074;-89
2022/04/06 06:35:36;;;;;;;13.85;10.15;;;;;;;10.56;46.19;99124.63;6274789;22;19999;-89
2022/04/06 06:38:02;;;;;;;9.82;7.15;;;;;;;11.84;46.31;99300.81;6299744;22;20361;-88
2022/04/06 06:40:28;;;;;;;9.75;7.53;;;;;;;12.12;46.13;99338.69;6273351;22;20004;-89
2022/04/06 06:42:54;;;;;;;11.43;8.13;;;;;;;12.73;46.21;99427.09;6272801;22;20003;-88
2022/04/06 06:45:19;;;;;;;9.77;8.10;;;;;;;12.82;45.92;99411.06;6273384;22;20042;-88
2022/04/06 06:47:46;;;;;;;13.93;8.63;;;;;;;12.78;45.73;99386.78;6270026;22;19999;-88
2022/04/06 06:50:13;;;;;;;11.63;8.45;;;;;;;12.50;45.62;99317.94;6269098;22;20082;-88
2022/04/06 06:52:39;;;;;;;12.15;7.90;;;;;;;12.51;45.96;99303.69;6271418;22;20474;-88
2022/04/06 06:55:07;;;;;;;9.20;7.90;;;;;;;13.00;45.96;99404.22;6274166;22;20080;-88
2022/04/06 06:57:33;;;;;;;9.88;7.93;;;;;;;12.68;45.91;99333.34;6272827;22;20500;-88
2022/04/06 06:59:58;;;;;;;9.20;7.40;;;;;;;12.96;45.54;99349.97;6273772;22;20027;-90
2022/04/06 07:02:24;;;;;;;9.63;7.18;;;;;;;12.89;45.47;99338.53;6274872;22;20015;-89
2022/04/06 07:04:49;;;;;;;10.40;8.40;;;;;;;13.12;45.30;99371.84;6273537;22;20054;-88
2022/04/06 07:07:15;;;;;;;11.32;8.07;;;;;;;13.15;44.72;99369.63;6275091;22;19995;-88
2022/04/06 07:09:41;;;;;;;7.30;6.60;;;;;;;12.32;44.74;99190.56;6299636;22;20003;-88
2022/04/06 07:12:06;;;;;;;7.43;6.65;;;;;;;13.96;44.20;99463.34;6272818;22;20019;-89
2022/04/06 07:14:32;;;;;;;8.60;7.72;;;;;;;13.55;44.12;99359.97;6273908;22;19992;-88
2022/04/06 07:17:01;;;;;;;10.00;7.10;;;;;;;14.12;43.73;99432.09;6272529;22;20449;-88
2022/04/06 07:19:26;;;;;;;7.70;5.72;;;;;;;14.38;43.11;99450.72;6272694;22;20004;-89
2022/04/06 07:21:52;;;;;;;8.05;5.78;;;;;;;13.66;42.80;99327.56;6272530;22;20399;-89
2022/04/06 07:24:17;;;;;;;6.20;5.53;;;;;;;13.58;41.80;99311.00;6271409;22;20334;-89
2022/04/06 07:26:43;;;;;;;7.05;4.40;;;;;;;13.54;41.42;99325.69;6298157;22;20429;-88
2022/04/06 07:29:11;;;;;;;5.35;4.85;;;;;;;14.04;41.03;99389.84;6272970;22;20004;-88
2022/04/06 07:31:38;;;;;;;6.85;4.90;;;;;;;13.61;41.00;99326.53;6272063;22;19996;-88
2022/04/06 07:34:04;;;;;;;8.68;5.72;;;;;;;14.62;41.27;99454.63;6272329;22;20023;-88
2022/04/06 07:36:30;;;;;;;7.22;5.72;;;;;;;13.97;40.75;99364.09;6272691;22;19999;-88
2022/04/06 07:38:55;;;;;;;6.10;5.30;;;;;;;14.66;40.41;99449.72;6272180;22;20017;-90
2022/04/06 07:41:24;;;;;;;6.35;5.15;;;;;;;14.77;40.49;99475.66;6272224;22;19999;-89
2022/04/06 07:43:50;;;;;;;6.88;4.72;;;;;;;13.95;39.71;99334.28;6272857;22;20003;-89
2022/04/06 07:46:15;;;;;;;6.25;5.10;;;;;;;14.42;39.64;99400.66;6272584;22;20505;-90
2022/04/06 07:48:41;;;;;;;6.13;5.47;;;;;;;14.30;39.65;99353.47;6272140;22;20011;-88
2022/04/06 07:51:07;;;;;;;7.88;4.88;;;;;;;14.20;39.68;99315.09;6272753;22;20004;-88
2022/04/06 07:53:32;;;;;;;6.55;5.38;;;;;;;14.87;39.54;99428.22;6271266;22;20085;-88
2022/04/06 07:55:58;;;;;;;6.28;5.65;;;;;;;13.81;39.57;99279.59;6271482;22;19992;-89
2022/04/06 07:58:24;;;;;;;9.57;5.97;;;;;;;15.13;39.69;99454.75;6271522;22;20000;-89
2022/04/06 08:00:49;;;;;;;7.80;7.00;;;;;;;14.93;39.67;99384.88;6299757;22;19999;-90
2022/04/06 08:03:15;;;;;;;12.30;7.35;;;;;;;14.54;39.50;99308.72;6274190;22;20026;-89
2022/04/06 08:05:40;;;;;;;9.93;5.85;;;;;;;15.42;39.49;99439.28;6275615;22;20011;-89
2022/04/06 08:08:06;;;;;;;7.18;6.07;;;;;;;14.87;39.41;99340.50;6275983;22;20023;-88
2022/04/06 08:10:32;;;;;;;8.90;6.00;;;;;;;14.72;39.37;99292.91;6274312;22;20000;-89
2022/04/06 08:12:57;;;;;;;7.43;5.60;;;;;;;14.89;38.68;99303.91;6274519;22;20326;-89
2022/04/06 08:15:23;;;;;;;7.18;5.72;;;;;;;15.95;38.73;99450.50;6274544;22;20058;-89
2022/04/06 08:17:49;;;;;;;6.95;5.28;;;;;;;15.27;38.71;99333.97;6276126;22;20000;-88
2022/04/06 08:20:16;;;;;;;8.30;6.50;;;;;;;16.24;38.32;99445.59;6276427;22;20006;-88
2022/04/06 08:22:43;;;;;;;7.00;5.30;;;;;;;15.52;37.93;99342.00;6274447;22;20052;-88
2022/04/06 08:25:10;;;;;;;7.53;5.93;;;;;;;16.27;37.78;99413.19;6276746;22;20000;-87
2022/04/06 08:27:41;;;;;;;6.40;5.18;;;;;;;16.20;37.71;99397.25;6275157;22;20008;-87
2022/04/06 08:30:08;;;;;;;7.72;5.50;;;;;;;16.53;37.96;99418.31;6273973;22;20429;-87
2022/04/06 08:32:33;;;;;;;9.48;5.60;;;;;;;16.11;37.36;99343.44;6276133;22;19999;-87
2022/04/06 08:35:00;;;;;;;9.00;6.20;;;;;;;17.00;36.93;99446.16;6274402;22;19991;-88
2022/04/06 08:37:29;;;;;;;8.07;6.95;;;;;;;17.09;36.71;99436.84;6274585;22;20078;-87
2022/04/06 08:39:54;;;;;;;7.97;6.05;;;;;;;16.85;36.88;99400.38;6274893;22;20000;-86
2022/04/06 08:42:19;;;;;;;8.40;7.57;;;;;;;16.60;36.34;99323.09;6274762;22;20330;-86
2022/04/06 08:44:45;;;;;;;8.60;6.25;;;;;;;17.04;36.42;99361.16;6275403;22;20449;-86
2022/04/06 08:47:11;;;;;;;6.93;5.53;;;;;;;17.22;35.68;99350.50;6274480;22;20000;-86
2022/04/06 08:49:40;;;;;;;8.18;6.45;;;;;;;17.25;35.34;99336.72;6274461;22;19998;-86
2022/04/06 08:52:06;;;;;;;5.90;5.40;;;;;;;18.09;35.20;99439.06;6274706;22;20444;-87
2022/04/06 08:54:32;;;;;;;5.53;5.00;;;;;;;16.98;34.93;99224.19;6274122;22;19992;-85
2022/04/06 08:56:58;;;;;;;7.50;5.45;;;;;;;18.33;34.17;99405.16;6276065;22;20002;-87
2022/04/06 08:59:23;;;;;;;6.20;5.32;;;;;;;18.03;34.24;99341.94;6274349;22;20429;-87
2022/04/06 09:01:49;;;;;;;7.03;5.05;;;;;;;17.86;33.84;99303.59;6273732;22;20019;-89
2022/04/06 09:04:14;;;;;;;10.75;6.28;;;;;;;18.45;33.62;99371.22;6273433;22;19996;-88
2022/04/06 09:06:41;;;;;;;10.82;4.90;;;;;;;18.52;33.07;99328.31;6272889;22;20369;-85
2022/04/06 09:09:09;;;;;;;6.93;5.03;;;;;;;18.23;32.71;99271.28;6274765;22;19999;-86
2022/04/06 09:11:42;;;;;;;5.93;5.35;;;;;;;19.42;31.75;99421.47;6272588;22;19999;-86
2022/04/06 09:14:08;;;;;;;5.97;5.13;;;;;;;19.61;32.10;99399.66;6272938;22;20444;-85
2022/04/06 09:16:33;;;;;;;5.38;4.88;;;;;;;19.61;31.97;99362.16;6275471;22;20075;-88
2022/04/06 09:19:14;;;;;;;6.43;4.90;;;;;;;19.48;31.27;99321.44;6274734;22;20034;-87
2022/04/06 09:21:46;;;;;;;9.05;5.95;;;;;;;19.94;30.72;99356.00;6272341;22;20393;-86
2022/04/06 09:24:16;;;;;;;6.35;5.38;;;;;;;19.80;30.23;99305.66;6270610;22;20064;-86
2022/04/06 09:26:42;;;;;;;6.93;4.47;;;;;;;19.76;29.91;99296.50;6295571;22;19999;-85
2022/04/06 09:29:11;;;;;;;5.75;4.60;;;;;;;20.35;28.60;99348.63;6270892;22;20042;-86
2022/04/06 09:31:39;;;;;;;6.75;4.30;;;;;;;20.46;28.63;99355.78;6271704;22;20026;-87
2022/04/06 09:34:05;;;;;;;4.13;3.65;;;;;;;20.51;28.30;99315.63;6271494;22;19996;-86
2022/04/06 09:36:32;;;;;;;4.43;3.85;;;;;;;21.09;28.11;99385.88;6270953;22;20008;-87
2022/04/06 09:38:59;;;;;;;6.35;4.28;;;;;;;20.13;28.04;99211.84;6272578;22;20007;-87
2022/04/06 09:41:25;;;;;;;5.20;3.50;;;;;;;21.52;27.52;99374.28;6271304;22;20006;-86
2022/04/06 09:43:52;;;;;;;4.50;4.10;;;;;;;21.76;27.11;99377.50;6272374;22;20097;-86
2022/04/06 09:49:12;;;;;;;4.35;3.95;;;;;;;21.67;26.81;99328.78;6274132;22;20042;-86
2022/04/06 09:51:39;;;;;;;4.32;3.72;;;;;;;22.17;26.73;99362.53;6270797;22;20074;-86
2022/04/06 09:54:06;;;;;;;4.30;3.90;;;;;;;22.37;26.46;99365.41;6270629;22;20018;-85
2022/04/06 09:56:33;;;;;;;4.15;3.75;;;;;;;22.00;26.40;99279.31;6272096;22;20010;-86
2022/04/06 09:59:01;;;;;;;6.18;5.45;;;;;;;22.77;25.98;99362.13;6275058;22;20330;-86
2022/04/06 10:01:32;;;;;;;5.88;3.53;;;;;;;22.50;25.79;99283.41;6273674;22;20354;-87
2022/04/06 10:04:03;;;;;;;6.45;4.10;;;;;;;23.04;25.74;99351.25;6273928;22;19996;-86
2022/04/06 10:06:31;;;;;;;6.13;4.93;;;;;;;22.98;25.66;99314.56;6274707;22;20004;-86
2022/04/06 10:08:57;;;;;;;6.90;4.50;;;;;;;22.81;25.10;99262.84;6273146;22;20061;-86
2022/04/06 10:11:23;;;;;;;6.03;4.78;;;;;;;22.67;25.13;99227.50;6270866;22;20390;-89
2022/04/06 10:13:50;;;;;;;6.18;4.38;;;;;;;23.28;24.96;99286.13;6273114;22;19998;-86
2022/04/06 10:16:17;;;;;;;5.53;4.15;;;;;;;23.53;24.73;99301.50;6296505;22;20000;-87
2022/04/06 10:18:44;;;;;;;6.82;4.18;;;;;;;23.96;24.38;99336.06;6271749;22;20023;-87
2022/04/06 10:21:19;;;;;;;5.85;4.55;;;;;;;23.88;24.24;99301.56;6272566;22;20410;-86
2022/04/06 10:24:10;;;;;;;4.55;3.90;;;;;;;24.26;22.67;99321.75;6270443;22;20326;-86
2022/04/06 10:26:57;;;;;;;8.38;6.35;;;;;;;24.42;22.84;99317.13;6272271;22;20430;-85
2022/04/06 10:29:22;;;;;;;21.77;19.42;;;;;;;24.07;23.28;99270.25;6273267;22;20443;-85
2022/04/06 10:31:48;;;;;;;7.68;4.88;;;;;;;23.73;22.70;99217.97;6272867;22;20002;-85
2022/04/06 10:34:22;;;;;;;4.95;3.50;;;;;;;24.24;22.32;99315.00;6271067;22;20424;-85
2022/04/06 10:37:15;;;;;;;3.63;3.15;;;;;;;24.40;22.19;99312.00;6271628;22;20436;-86
2022/04/06 10:39:50;;;;;;;5.00;3.63;;;;;;;24.40;21.53;99308.50;6270995;22;20026;-86
2022/04/06 10:42:30;;;;;;;5.70;3.92;;;;;;;24.00;22.15;99242.75;6270532;22;20007;-85
2022/04/06 10:44:55;;;;;;;3.90;3.35;;;;;;;24.10;21.13;99290.47;6271619;22;20011;-85
2022/04/06 10:47:23;;;;;;;3.60;2.85;;;;;;;23.90;20.72;99223.91;6270636;22;20076;-86
2022/04/06 10:50:07;;;;;;;4.57;3.97;;;;;;;24.76;20.93;99311.13;6270926;22;20004;-85
2022/04/06 10:52:33;;;;;;;3.35;2.80;;;;;;;24.89;20.77;99289.72;6272716;22;20003;-86
2022/04/06 10:55:08;;;;;;;3.45;2.67;;;;;;;25.28;20.08;99303.31;6271891;22;20000;-86
2022/04/06 10:57:55;;;;;;;5.00;3.05;;;;;;;25.49;19.91;99297.78;6271978;22;20000;-87
2022/04/06 11:00:21;;;;;;;3.55;3.00;;;;;;;24.96;20.39;99200.28;6271778;22;20333;-87
2022/04/06 11:02:50;;;;;;;3.67;3.20;;;;;;;25.19;20.20;99205.00;6270669;22;20022;-87
2022/04/06 11:05:45;;;;;;;4.75;2.97;;;;;;;26.03;20.32;99288.72;6272817;22;19999;-87
2022/04/06 11:11:43;;;;;;;4.35;3.75;;;;;;;25.83;20.04;99284.28;6274119;22;20025;-87
2022/04/06 11:14:09;;;;;;;3.72;2.90;;;;;;;25.58;19.63;99250.13;6272610;22;20006;-87
2022/04/06 11:16:43;;;;;;;4.25;2.80;;;;;;;25.49;19.34;99216.69;6272908;22;20011;-85
2022/04/06 11:19:08;;;;;;;4.65;2.28;;;;;;;25.95;19.13;99274.69;6272447;22;20348;-86
2022/04/06 11:21:34;;;;;;;4.18;3.30;;;;;;;25.65;19.70;99226.25;6272281;22;20027;-85
2022/04/06 11:24:00;;;;;;;4.55;3.85;;;;;;;25.95;19.62;99255.75;6272812;22;19996;-85
2022/04/06 11:26:26;;;;;;;3.95;3.22;;;;;;;25.85;19.63;99233.41;6272276;22;20107;-85
2022/04/06 11:28:59;;;;;;;3.05;2.65;;;;;;;26.15;19.57;99251.25;6272426;22;20025;-86
2022/04/06 11:31:24;;;;;;;4.95;3.50;;;;;;;25.99;19.25;99226.22;6271268;22;20002;-85
2022/04/06 11:33:50;;;;;;;4.38;3.70;;;;;;;26.35;18.98;99248.34;6273171;22;19999;-86
2022/04/06 11:36:18;;;;;;;2.30;2.10;;;;;;;25.87;19.12;99159.00;6271828;22;20066;-86
2022/04/06 11:38:50;;;;;;;5.55;3.95;;;;;;;26.11;18.84;99174.44;6271823;22;20005;-84
2022/04/06 11:41:18;;;;;;;3.80;3.17;;;;;;;26.80;18.89;99236.16;6272798;22;20010;-86